createdAt,value
2019-03-26T00:00:04.984Z,5.22
2019-03-26T00:01:04.981Z,5.17
2019-03-26T00:02:04.957Z,5.11
2019-03-26T00:03:04.935Z,5.06
2019-03-26T00:04:06.249Z,5.17
2019-03-26T00:05:05.046Z,5.15
2019-03-26T00:06:04.910Z,5.14
2019-03-26T00:07:04.900Z,5.12
2019-03-26T00:08:04.886Z,5.17
2019-03-26T00:09:04.875Z,5.11
2019-03-26T00:10:04.876Z,5.06
2019-03-26T00:11:04.885Z,5.01
2019-03-26T00:12:04.839Z,5.06
2019-03-26T00:13:04.830Z,5.08
2019-03-26T00:14:04.846Z,5.09
2019-03-26T00:15:04.870Z,5.02
2019-03-26T00:16:04.829Z,5.04
2019-03-26T00:17:04.791Z,5.01
2019-03-26T00:18:04.774Z,5.06
2019-03-26T00:19:04.807Z,4.97
2019-03-26T00:20:04.761Z,5.04
2019-03-26T00:21:04.751Z,4.93
2019-03-26T00:22:04.725Z,4.96
2019-03-26T00:23:04.712Z,4.91
2019-03-26T00:24:04.718Z,4.99
2019-03-26T00:25:04.702Z,4.93
2019-03-26T00:26:04.709Z,4.91
2019-03-26T00:27:07.705Z,4.90
2019-03-26T00:28:04.663Z,4.91
2019-03-26T00:29:04.693Z,4.91
2019-03-26T00:30:04.646Z,4.93
2019-03-26T00:31:04.647Z,4.94
2019-03-26T00:32:04.617Z,4.88
2019-03-26T00:33:04.611Z,4.86
2019-03-26T00:34:04.607Z,4.91
2019-03-26T00:35:04.584Z,4.90
2019-03-26T00:36:04.579Z,4.86
2019-03-26T00:37:04.574Z,4.79
2019-03-26T00:38:04.555Z,4.83
2019-03-26T00:39:04.559Z,4.83
2019-03-26T00:40:04.611Z,4.74
2019-03-26T00:41:04.535Z,4.77
2019-03-26T00:42:04.529Z,4.74
2019-03-26T00:43:04.497Z,4.83
2019-03-26T00:44:04.490Z,4.75
2019-03-26T00:45:04.473Z,4.75
2019-03-26T00:46:04.481Z,4.77
2019-03-26T00:47:04.455Z,4.69
2019-03-26T00:48:04.468Z,4.69
2019-03-26T00:49:04.432Z,4.65
2019-03-26T00:50:04.471Z,4.68
2019-03-26T00:51:04.415Z,4.74
2019-03-26T00:52:04.400Z,4.64
2019-03-26T00:53:04.389Z,4.65
2019-03-26T00:54:04.390Z,4.62
2019-03-26T00:55:04.375Z,4.62
2019-03-26T00:56:04.375Z,4.67
2019-03-26T00:57:04.353Z,4.59
2019-03-26T00:58:04.396Z,4.53
2019-03-26T00:59:04.326Z,4.62
2019-03-26T01:00:04.354Z,4.53
2019-03-26T01:01:04.297Z,4.44
2019-03-26T01:02:04.282Z,4.42
2019-03-26T01:03:04.321Z,4.51
2019-03-26T01:04:04.280Z,4.46
2019-03-26T01:05:04.265Z,4.46
2019-03-26T01:06:04.267Z,4.53
2019-03-26T01:07:04.245Z,4.53
2019-03-26T01:08:04.227Z,4.49
2019-03-26T01:09:04.212Z,4.46
2019-03-26T01:10:04.206Z,4.50
2019-03-26T01:11:04.209Z,4.42
2019-03-26T01:12:04.172Z,4.43
2019-03-26T01:13:04.184Z,4.44
2019-03-26T01:14:04.196Z,4.44
2019-03-26T01:15:04.150Z,4.43
2019-03-26T01:16:04.138Z,4.44
2019-03-26T01:17:04.143Z,4.39
2019-03-26T01:18:04.146Z,4.39
2019-03-26T01:19:04.102Z,4.38
2019-03-26T01:20:04.093Z,4.29
2019-03-26T01:21:04.086Z,4.43
2019-03-26T01:22:04.077Z,4.38
2019-03-26T01:23:04.051Z,4.38
2019-03-26T01:24:04.055Z,4.38
2019-03-26T01:25:04.035Z,4.43
2019-03-26T01:26:04.042Z,4.46
2019-03-26T01:27:04.007Z,4.43
2019-03-26T01:28:04.006Z,4.46
2019-03-26T01:29:03.984Z,4.38
2019-03-26T01:30:04.164Z,4.39
2019-03-26T01:31:03.976Z,4.31
2019-03-26T01:32:03.966Z,4.46
2019-03-26T01:33:03.950Z,4.31
2019-03-26T01:34:03.956Z,4.34
2019-03-26T01:35:03.926Z,4.43
2019-03-26T01:36:03.925Z,4.39
2019-03-26T01:37:03.906Z,4.39
2019-03-26T01:38:03.915Z,4.43
2019-03-26T01:39:03.891Z,4.39
2019-03-26T01:40:03.890Z,4.36
2019-03-26T01:41:03.866Z,4.35
2019-03-26T01:42:03.871Z,4.31
2019-03-26T01:43:03.850Z,4.29
2019-03-26T01:44:03.819Z,4.21
2019-03-26T01:45:03.824Z,4.29
2019-03-26T01:46:04.030Z,4.26
2019-03-26T01:47:04.002Z,4.17
2019-03-26T01:48:03.946Z,4.24
2019-03-26T01:49:03.774Z,4.17
2019-03-26T01:50:03.768Z,4.21
2019-03-26T01:51:03.859Z,4.20
2019-03-26T01:52:03.779Z,4.16
2019-03-26T01:53:03.754Z,4.24
2019-03-26T01:54:03.711Z,4.17
2019-03-26T01:55:03.727Z,4.24
2019-03-26T01:56:03.715Z,4.14
2019-03-26T01:57:03.799Z,4.17
2019-03-26T01:58:03.775Z,4.25
2019-03-26T01:59:03.694Z,4.21
2019-03-26T02:00:03.645Z,4.24
2019-03-26T02:01:03.635Z,4.24
2019-03-26T02:02:03.675Z,4.21
2019-03-26T02:03:03.632Z,4.24
2019-03-26T02:04:04.259Z,4.20
2019-03-26T02:05:03.619Z,4.17
2019-03-26T02:06:03.604Z,4.18
2019-03-26T02:07:03.565Z,4.20
2019-03-26T02:08:03.701Z,4.20
2019-03-26T02:09:03.548Z,4.17
2019-03-26T02:10:03.539Z,4.17
2019-03-26T02:11:03.527Z,4.24
2019-03-26T02:12:03.522Z,4.16
2019-03-26T02:13:03.515Z,4.18
2019-03-26T02:14:03.509Z,4.13
2019-03-26T02:15:03.475Z,4.06
2019-03-26T02:16:03.470Z,4.14
2019-03-26T02:17:03.462Z,4.07
2019-03-26T02:18:03.519Z,4.14
2019-03-26T02:19:03.436Z,4.07
2019-03-26T02:20:03.442Z,4.06
2019-03-26T02:21:03.410Z,4.08
2019-03-26T02:22:03.397Z,4.07
2019-03-26T02:23:03.427Z,4.06
2019-03-26T02:24:03.388Z,4.07
2019-03-26T02:25:03.448Z,4.06
2019-03-26T02:26:03.360Z,4.08
2019-03-26T02:27:03.360Z,4.07
2019-03-26T02:28:03.359Z,4.07
2019-03-26T02:29:03.326Z,4.02
2019-03-26T02:30:03.312Z,4.06
2019-03-26T02:31:03.331Z,3.98
2019-03-26T02:32:03.288Z,4.07
2019-03-26T02:33:03.293Z,4.00
2019-03-26T02:34:03.266Z,4.04
2019-03-26T02:35:16.888Z,4.13
2019-03-26T02:36:04.377Z,4.04
2019-03-26T02:37:03.231Z,4.06
2019-03-26T02:38:03.235Z,4.07
2019-03-26T02:39:03.233Z,4.06
2019-03-26T02:40:03.349Z,4.06
2019-03-26T02:41:03.316Z,4.13
2019-03-26T02:42:03.172Z,4.02
2019-03-26T02:43:03.749Z,3.99
2019-03-26T02:44:03.173Z,4.02
2019-03-26T02:45:03.140Z,4.00
2019-03-26T02:46:03.177Z,4.00
2019-03-26T02:47:03.365Z,4.02
2019-03-26T02:48:03.143Z,3.99
2019-03-26T02:49:03.094Z,4.04
2019-03-26T02:50:03.085Z,4.04
2019-03-26T02:51:03.094Z,4.08
2019-03-26T02:52:03.156Z,3.93
2019-03-26T02:53:03.070Z,3.93
2019-03-26T02:54:03.081Z,3.96
2019-03-26T02:55:03.037Z,3.93
2019-03-26T02:56:03.795Z,3.99
2019-03-26T02:57:03.328Z,3.89
2019-03-26T02:58:03.001Z,3.92
2019-03-26T02:59:02.997Z,3.88
2019-03-26T03:00:02.977Z,3.82
2019-03-26T03:01:02.960Z,3.80
2019-03-26T03:02:03.047Z,3.95
2019-03-26T03:03:03.749Z,3.84
2019-03-26T03:04:03.025Z,3.86
2019-03-26T03:05:02.949Z,3.82
2019-03-26T03:06:02.904Z,3.93
2019-03-26T03:07:02.929Z,3.88
2019-03-26T03:08:02.897Z,3.89
2019-03-26T03:09:02.877Z,3.90
2019-03-26T03:10:02.868Z,3.88
2019-03-26T03:11:02.902Z,3.92
2019-03-26T03:12:02.850Z,3.86
2019-03-26T03:13:02.831Z,3.98
2019-03-26T03:14:02.822Z,4.04
2019-03-26T03:15:02.853Z,3.99
2019-03-26T03:16:02.801Z,4.06
2019-03-26T03:17:02.793Z,4.02
2019-03-26T03:18:03.147Z,4.02
2019-03-26T03:19:02.760Z,4.04
2019-03-26T03:20:02.752Z,4.06
2019-03-26T03:21:02.751Z,4.07
2019-03-26T03:22:02.785Z,4.16
2019-03-26T03:23:02.721Z,4.17
2019-03-26T03:24:02.700Z,4.24
2019-03-26T03:25:02.701Z,4.20
2019-03-26T03:26:02.716Z,4.21
2019-03-26T03:27:02.690Z,4.21
2019-03-26T03:28:02.672Z,4.25
2019-03-26T03:29:02.659Z,4.31
2019-03-26T03:30:02.691Z,4.18
2019-03-26T03:31:02.642Z,4.21
2019-03-26T03:32:02.625Z,4.21
2019-03-26T03:33:02.636Z,4.25
2019-03-26T03:34:02.644Z,4.20
2019-03-26T03:35:03.256Z,4.21
2019-03-26T03:36:02.585Z,4.20
2019-03-26T03:37:02.586Z,4.25
2019-03-26T03:38:02.557Z,4.24
2019-03-26T03:39:02.597Z,4.18
2019-03-26T03:40:02.645Z,4.16
2019-03-26T03:41:02.512Z,4.25
2019-03-26T03:42:02.545Z,4.21
2019-03-26T03:43:02.557Z,4.24
2019-03-26T03:44:02.507Z,4.32
2019-03-26T03:45:02.473Z,4.29
2019-03-26T03:46:02.477Z,4.29
2019-03-26T03:47:02.476Z,4.29
2019-03-26T03:48:02.470Z,4.29
2019-03-26T03:49:02.440Z,4.29
2019-03-26T03:50:02.555Z,4.31
2019-03-26T03:51:02.402Z,4.32
2019-03-26T03:52:02.407Z,4.43
2019-03-26T03:53:02.380Z,4.29
2019-03-26T03:54:02.367Z,4.29
2019-03-26T03:55:02.409Z,4.36
2019-03-26T03:56:02.375Z,4.32
2019-03-26T03:57:02.354Z,4.31
2019-03-26T03:58:02.356Z,4.28
2019-03-26T03:59:02.312Z,4.31
2019-03-26T04:00:02.307Z,4.25
2019-03-26T04:01:02.316Z,4.34
2019-03-26T04:02:02.289Z,4.34
2019-03-26T04:03:02.279Z,4.38
2019-03-26T04:04:02.255Z,4.25
2019-03-26T04:05:02.290Z,4.26
2019-03-26T04:06:09.734Z,4.26
2019-03-26T04:07:03.233Z,4.28
2019-03-26T04:08:02.214Z,4.28
2019-03-26T04:09:02.196Z,4.25
2019-03-26T04:10:02.201Z,4.31
2019-03-26T04:11:02.177Z,4.31
2019-03-26T04:12:02.181Z,4.32
2019-03-26T04:13:02.181Z,4.32
2019-03-26T04:14:02.149Z,4.25
2019-03-26T04:15:02.168Z,4.32
2019-03-26T04:16:02.145Z,4.32
2019-03-26T04:17:02.118Z,4.35
2019-03-26T04:18:02.115Z,4.29
2019-03-26T04:19:02.093Z,4.32
2019-03-26T04:20:02.085Z,4.20
2019-03-26T04:21:02.145Z,4.29
2019-03-26T04:22:02.049Z,4.28
2019-03-26T04:23:02.135Z,4.28
2019-03-26T04:24:02.056Z,4.34
2019-03-26T04:25:02.028Z,4.29
2019-03-26T04:26:02.036Z,4.24
2019-03-26T04:27:01.996Z,4.31
2019-03-26T04:28:01.988Z,4.28
2019-03-26T04:29:01.984Z,4.32
2019-03-26T04:30:02.038Z,4.31
2019-03-26T04:31:01.960Z,4.28
2019-03-26T04:32:01.956Z,4.26
2019-03-26T04:33:01.936Z,4.24
2019-03-26T04:34:01.923Z,4.32
2019-03-26T04:35:01.928Z,4.36
2019-03-26T04:36:01.950Z,4.32
2019-03-26T04:37:01.892Z,4.32
2019-03-26T04:38:01.873Z,4.29
2019-03-26T04:39:01.867Z,4.31
2019-03-26T04:40:01.866Z,4.32
2019-03-26T04:41:01.869Z,4.35
2019-03-26T04:42:01.832Z,4.28
2019-03-26T04:43:01.826Z,4.24
2019-03-26T04:44:01.810Z,4.26
2019-03-26T04:45:01.801Z,4.29
2019-03-26T04:46:01.800Z,4.28
2019-03-26T04:47:01.874Z,4.25
2019-03-26T04:48:01.769Z,4.28
2019-03-26T04:49:01.749Z,4.24
2019-03-26T04:50:01.747Z,4.29
2019-03-26T04:51:01.765Z,4.29
2019-03-26T04:52:01.713Z,4.29
2019-03-26T04:53:01.709Z,4.29
2019-03-26T04:54:01.699Z,4.28
2019-03-26T04:55:01.727Z,4.32
2019-03-26T04:56:01.690Z,4.28
2019-03-26T04:57:01.668Z,4.29
2019-03-26T04:58:01.687Z,4.42
2019-03-26T04:59:01.644Z,4.28
2019-03-26T05:00:01.625Z,4.42
2019-03-26T05:01:01.667Z,4.32
2019-03-26T05:02:01.606Z,4.39
2019-03-26T05:03:01.711Z,4.36
2019-03-26T05:04:01.583Z,4.42
2019-03-26T05:05:01.692Z,4.49
2019-03-26T05:06:01.580Z,4.43
2019-03-26T05:07:01.561Z,4.44
2019-03-26T05:08:01.544Z,4.47
2019-03-26T05:09:01.539Z,4.43
2019-03-26T05:10:01.516Z,4.42
2019-03-26T05:11:01.524Z,4.44
2019-03-26T05:12:01.491Z,4.47
2019-03-26T05:13:01.480Z,4.43
2019-03-26T05:14:01.471Z,4.42
2019-03-26T05:15:01.466Z,4.43
2019-03-26T05:16:01.487Z,4.44
2019-03-26T05:17:01.464Z,4.39
2019-03-26T05:18:01.475Z,4.42
2019-03-26T05:19:01.426Z,4.43
2019-03-26T05:20:01.418Z,4.53
2019-03-26T05:21:01.400Z,4.49
2019-03-26T05:22:01.408Z,4.54
2019-03-26T05:23:01.363Z,4.49
2019-03-26T05:24:01.371Z,4.51
2019-03-26T05:25:01.344Z,4.56
2019-03-26T05:26:01.366Z,4.42
2019-03-26T05:27:01.330Z,4.43
2019-03-26T05:28:01.318Z,4.44
2019-03-26T05:29:01.300Z,4.44
2019-03-26T05:30:01.289Z,4.39
2019-03-26T05:31:01.315Z,4.42
2019-03-26T05:32:01.300Z,4.43
2019-03-26T05:33:01.346Z,4.43
2019-03-26T05:34:01.253Z,4.38
2019-03-26T05:35:01.235Z,4.36
2019-03-26T05:36:01.252Z,4.38
2019-03-26T05:37:01.219Z,4.46
2019-03-26T05:38:01.206Z,4.47
2019-03-26T05:39:01.196Z,4.42
2019-03-26T05:40:01.242Z,4.39
2019-03-26T05:41:01.173Z,4.34
2019-03-26T05:42:01.158Z,4.28
2019-03-26T05:43:01.140Z,4.36
2019-03-26T05:44:01.133Z,4.42
2019-03-26T05:45:01.133Z,4.32
2019-03-26T05:46:01.165Z,4.28
2019-03-26T05:47:01.775Z,4.34
2019-03-26T05:48:01.087Z,4.32
2019-03-26T05:49:01.076Z,4.35
2019-03-26T05:50:01.072Z,4.29
2019-03-26T05:51:01.117Z,4.31
2019-03-26T05:52:01.045Z,4.31
2019-03-26T05:53:01.041Z,4.32
2019-03-26T05:54:01.022Z,4.32
2019-03-26T05:55:01.211Z,4.28
2019-03-26T05:56:01.031Z,4.38
2019-03-26T05:57:00.987Z,4.28
2019-03-26T05:58:00.973Z,4.28
2019-03-26T05:59:00.967Z,4.31
2019-03-26T06:00:00.952Z,4.32
2019-03-26T06:01:00.996Z,4.36
2019-03-26T06:02:13.233Z,4.43
2019-03-26T06:03:01.936Z,4.46
2019-03-26T06:04:00.916Z,4.51
2019-03-26T06:05:00.927Z,4.53
2019-03-26T06:06:00.890Z,4.53
2019-03-26T06:07:04.990Z,4.50
2019-03-26T06:08:00.861Z,4.56
2019-03-26T06:09:00.861Z,4.65
2019-03-26T06:10:00.840Z,4.68
2019-03-26T06:11:00.882Z,4.62
2019-03-26T06:12:01.738Z,4.64
2019-03-26T06:13:01.134Z,4.62
2019-03-26T06:14:00.799Z,4.79
2019-03-26T06:15:00.792Z,4.65
2019-03-26T06:16:00.847Z,4.72
2019-03-26T06:17:00.762Z,4.77
2019-03-26T06:18:00.751Z,4.75
2019-03-26T06:19:00.774Z,4.83
2019-03-26T06:20:00.744Z,4.83
2019-03-26T06:21:00.728Z,4.88
2019-03-26T06:22:00.711Z,4.91
2019-03-26T06:23:00.703Z,4.91
2019-03-26T06:24:00.690Z,4.91
2019-03-26T06:25:00.686Z,4.91
2019-03-26T06:26:00.693Z,4.91
2019-03-26T06:27:00.660Z,5.09
2019-03-26T06:28:00.640Z,5.01
2019-03-26T06:29:01.319Z,5.09
2019-03-26T06:30:00.643Z,5.01
2019-03-26T06:31:00.970Z,5.12
2019-03-26T06:32:00.605Z,5.12
2019-03-26T06:33:00.583Z,5.09
2019-03-26T06:34:00.572Z,5.20
2019-03-26T06:35:00.611Z,5.22
2019-03-26T06:36:00.571Z,5.20
2019-03-26T06:37:00.566Z,5.29
2019-03-26T06:38:00.533Z,5.27
2019-03-26T06:39:00.521Z,5.40
2019-03-26T06:40:00.508Z,5.45
2019-03-26T06:41:00.505Z,5.35
2019-03-26T06:42:01.279Z,5.42
2019-03-26T06:43:00.500Z,5.30
2019-03-26T06:44:00.466Z,5.45
2019-03-26T06:45:00.447Z,5.45
2019-03-26T06:46:00.491Z,5.62
2019-03-26T06:47:00.433Z,5.59
2019-03-26T06:48:00.425Z,5.56
2019-03-26T06:49:00.414Z,5.62
2019-03-26T06:50:00.389Z,5.52
2019-03-26T06:51:00.766Z,5.63
2019-03-26T06:52:00.372Z,5.58
2019-03-26T06:53:00.378Z,5.67
2019-03-26T06:54:00.345Z,5.73
2019-03-26T06:55:00.352Z,5.74
2019-03-26T06:56:00.339Z,5.69
2019-03-26T06:57:00.322Z,5.78
2019-03-26T06:58:00.320Z,5.85
2019-03-26T06:59:00.319Z,5.90
2019-03-26T07:00:00.375Z,5.96
2019-03-26T07:01:00.280Z,5.92
2019-03-26T07:02:00.258Z,5.95
2019-03-26T07:03:00.242Z,5.95
2019-03-26T07:04:00.251Z,5.93
2019-03-26T07:05:00.462Z,6.01
2019-03-26T07:06:00.221Z,6.02
2019-03-26T07:07:00.219Z,6.10
2019-03-26T07:08:00.228Z,6.02
2019-03-26T07:09:00.182Z,6.05
2019-03-26T07:10:00.403Z,6.03
2019-03-26T07:11:00.161Z,6.05
2019-03-26T07:12:00.154Z,6.05
2019-03-26T07:13:00.128Z,6.08
2019-03-26T07:14:00.115Z,6.06
2019-03-26T07:15:00.343Z,6.05
2019-03-26T07:16:00.146Z,6.02
2019-03-26T07:17:00.085Z,6.01
2019-03-26T07:18:00.102Z,6.03
2019-03-26T07:19:00.060Z,6.05
2019-03-26T07:20:00.092Z,6.08
2019-03-26T07:21:00.132Z,6.08
2019-03-26T07:22:00.063Z,6.08
2019-03-26T07:23:00.026Z,6.05
2019-03-26T07:24:00.017Z,6.02
2019-03-26T07:25:00.000Z,6.11
2019-03-26T07:26:00.016Z,6.17
2019-03-26T07:27:00.155Z,6.20
2019-03-26T07:27:59.963Z,6.20
2019-03-26T07:28:59.950Z,6.17
2019-03-26T07:29:59.932Z,6.06
2019-03-26T07:30:59.946Z,6.17
2019-03-26T07:31:59.915Z,6.17
2019-03-26T07:32:59.902Z,6.27
2019-03-26T07:33:59.904Z,6.32
2019-03-26T07:34:59.909Z,6.30
2019-03-26T07:35:59.876Z,6.33
2019-03-26T07:36:59.892Z,6.38
2019-03-26T07:37:59.863Z,6.43
2019-03-26T07:38:59.833Z,6.46
2019-03-26T07:39:59.833Z,6.45
2019-03-26T07:40:59.903Z,6.36
2019-03-26T07:41:59.808Z,6.42
2019-03-26T07:42:59.790Z,6.54
2019-03-26T07:43:59.816Z,6.55
2019-03-26T07:44:59.762Z,6.64
2019-03-26T07:45:59.768Z,6.71
2019-03-26T07:46:59.839Z,6.61
2019-03-26T07:47:59.744Z,6.79
2019-03-26T07:48:59.738Z,6.81
2019-03-26T07:49:59.724Z,6.81
2019-03-26T07:50:59.699Z,6.82
2019-03-26T07:51:59.702Z,6.86
2019-03-26T07:52:59.681Z,6.91
2019-03-26T07:53:59.665Z,6.83
2019-03-26T07:54:59.677Z,6.89
2019-03-26T07:55:59.637Z,6.96
2019-03-26T07:56:59.641Z,6.87
2019-03-26T07:57:59.628Z,6.89
2019-03-26T07:58:59.610Z,6.83
2019-03-26T07:59:59.608Z,6.93
2019-03-26T08:00:59.588Z,6.91
2019-03-26T08:01:59.573Z,6.86
2019-03-26T08:02:59.570Z,6.91
2019-03-26T08:03:59.550Z,6.97
2019-03-26T08:04:59.544Z,7.00
2019-03-26T08:05:59.524Z,7.00
2019-03-26T08:06:59.539Z,7.11
2019-03-26T08:07:59.512Z,7.14
2019-03-26T08:08:59.495Z,7.16
2019-03-26T08:09:59.498Z,7.12
2019-03-26T08:10:59.484Z,7.11
2019-03-26T08:11:59.457Z,7.16
2019-03-26T08:12:59.464Z,7.19
2019-03-26T08:13:59.469Z,7.24
2019-03-26T08:14:59.469Z,7.36
2019-03-26T08:15:59.445Z,7.36
2019-03-26T08:16:59.418Z,7.27
2019-03-26T08:17:59.395Z,7.36
2019-03-26T08:18:59.382Z,7.34
2019-03-26T08:19:59.389Z,7.42
2019-03-26T08:20:59.402Z,7.47
2019-03-26T08:21:59.381Z,7.52
2019-03-26T08:22:59.334Z,7.52
2019-03-26T08:23:59.364Z,7.66
2019-03-26T08:24:59.320Z,7.66
2019-03-26T08:25:59.304Z,7.57
2019-03-26T08:26:59.312Z,7.67
2019-03-26T08:27:59.290Z,7.52
2019-03-26T08:29:01.008Z,7.71
2019-03-26T08:29:59.257Z,7.60
2019-03-26T08:30:59.274Z,7.70
2019-03-26T08:31:59.263Z,7.81
2019-03-26T08:32:59.223Z,7.81
2019-03-26T08:33:59.258Z,7.86
2019-03-26T08:34:59.207Z,7.85
2019-03-26T08:35:59.193Z,7.84
2019-03-26T08:36:59.178Z,7.79
2019-03-26T08:38:11.714Z,7.85
2019-03-26T08:39:00.207Z,7.79
2019-03-26T08:39:59.163Z,7.76
2019-03-26T08:40:59.131Z,7.82
2019-03-26T08:41:59.135Z,7.84
2019-03-26T08:42:59.110Z,7.76
2019-03-26T08:43:59.102Z,7.81
2019-03-26T08:44:59.101Z,7.84
2019-03-26T08:45:59.076Z,7.84
2019-03-26T08:46:59.067Z,7.89
2019-03-26T08:47:59.086Z,7.99
2019-03-26T08:48:59.042Z,8.09
2019-03-26T08:49:59.087Z,8.04
2019-03-26T08:50:59.039Z,8.06
2019-03-26T08:51:59.032Z,8.25
2019-03-26T08:52:59.005Z,8.25
2019-03-26T08:53:59.011Z,8.25
2019-03-26T08:54:58.991Z,8.31
2019-03-26T08:55:59.071Z,8.27
2019-03-26T08:56:58.951Z,8.22
2019-03-26T08:57:58.939Z,8.17
2019-03-26T08:58:58.945Z,8.12
2019-03-26T08:59:58.944Z,8.22
2019-03-26T09:00:59.081Z,8.22
2019-03-26T09:01:58.900Z,8.09
2019-03-26T09:02:58.909Z,8.20
2019-03-26T09:03:58.881Z,8.17
2019-03-26T09:04:58.935Z,8.18
2019-03-26T09:05:58.853Z,8.18
2019-03-26T09:06:58.857Z,8.20
2019-03-26T09:07:58.862Z,8.24
2019-03-26T09:08:58.829Z,8.29
2019-03-26T09:09:58.822Z,8.27
2019-03-26T09:10:58.799Z,8.22
2019-03-26T09:11:58.864Z,8.27
2019-03-26T09:12:58.857Z,8.18
2019-03-26T09:13:59.693Z,8.22
2019-03-26T09:14:58.766Z,8.21
2019-03-26T09:15:58.752Z,8.18
2019-03-26T09:16:58.731Z,8.17
2019-03-26T09:17:58.719Z,8.03
2019-03-26T09:18:58.721Z,8.09
2019-03-26T09:19:58.783Z,8.10
2019-03-26T09:20:58.690Z,8.02
2019-03-26T09:21:58.730Z,7.99
2019-03-26T09:22:58.660Z,8.09
2019-03-26T09:23:58.709Z,8.07
2019-03-26T09:24:58.657Z,8.09
2019-03-26T09:25:58.638Z,8.17
2019-03-26T09:26:58.628Z,8.24
2019-03-26T09:27:58.629Z,8.27
2019-03-26T09:28:58.599Z,8.28
2019-03-26T09:29:58.697Z,8.43
2019-03-26T09:30:58.580Z,8.43
2019-03-26T09:31:58.560Z,8.46
2019-03-26T09:32:58.559Z,8.39
2019-03-26T09:33:58.643Z,8.54
2019-03-26T09:34:58.526Z,8.54
2019-03-26T09:35:58.525Z,8.58
2019-03-26T09:36:58.530Z,8.49
2019-03-26T09:37:58.501Z,8.58
2019-03-26T09:38:58.499Z,8.47
2019-03-26T09:39:58.472Z,8.52
2019-03-26T09:40:58.474Z,8.49
2019-03-26T09:41:58.475Z,8.54
2019-03-26T09:42:58.448Z,8.52
2019-03-26T09:43:58.442Z,8.52
2019-03-26T09:44:58.416Z,8.61
2019-03-26T09:45:58.421Z,8.61
2019-03-26T09:46:58.401Z,8.61
2019-03-26T09:47:58.378Z,8.61
2019-03-26T09:48:58.395Z,8.57
2019-03-26T09:49:58.373Z,8.57
2019-03-26T09:50:58.378Z,8.58
2019-03-26T09:51:58.347Z,8.64
2019-03-26T09:52:58.333Z,8.49
2019-03-26T09:53:58.348Z,8.61
2019-03-26T09:54:58.306Z,8.52
2019-03-26T09:55:58.319Z,8.47
2019-03-26T09:56:58.279Z,8.42
2019-03-26T09:57:58.273Z,8.29
2019-03-26T09:58:58.277Z,8.24
2019-03-26T09:59:58.244Z,8.22
2019-03-26T10:00:58.250Z,8.27
2019-03-26T10:01:58.409Z,8.28
2019-03-26T10:02:58.220Z,8.37
2019-03-26T10:03:58.217Z,8.45
2019-03-26T10:04:58.220Z,8.50
2019-03-26T10:05:58.222Z,8.50
2019-03-26T10:06:58.186Z,8.52
2019-03-26T10:07:58.190Z,8.61
2019-03-26T10:08:58.146Z,8.64
2019-03-26T10:09:58.146Z,8.71
2019-03-26T10:10:58.154Z,8.67
2019-03-26T10:11:58.124Z,8.73
2019-03-26T10:12:58.098Z,8.82
2019-03-26T10:13:58.102Z,8.80
2019-03-26T10:14:58.077Z,8.85
2019-03-26T10:15:58.192Z,8.78
2019-03-26T10:16:58.052Z,8.82
2019-03-26T10:17:58.053Z,8.73
2019-03-26T10:18:58.038Z,8.79
2019-03-26T10:19:58.030Z,8.76
2019-03-26T10:20:58.016Z,8.67
2019-03-26T10:21:58.022Z,8.78
2019-03-26T10:22:58.032Z,8.73
2019-03-26T10:23:58.016Z,8.83
2019-03-26T10:24:58.181Z,8.83
2019-03-26T10:25:58.726Z,8.94
2019-03-26T10:26:57.957Z,8.98
2019-03-26T10:27:57.965Z,8.98
2019-03-26T10:28:57.925Z,9.03
2019-03-26T10:29:57.909Z,8.91
2019-03-26T10:30:57.897Z,9.15
2019-03-26T10:31:57.925Z,9.10
2019-03-26T10:32:57.888Z,9.15
2019-03-26T10:33:57.869Z,9.12
2019-03-26T10:34:57.864Z,9.06
2019-03-26T10:35:57.873Z,9.03
2019-03-26T10:36:57.841Z,8.97
2019-03-26T10:37:57.896Z,9.03
2019-03-26T10:39:05.392Z,9.13
2019-03-26T10:39:58.797Z,9.13
2019-03-26T10:40:57.811Z,9.16
2019-03-26T10:41:57.774Z,9.12
2019-03-26T10:42:57.767Z,9.06
2019-03-26T10:43:57.768Z,9.03
2019-03-26T10:44:57.768Z,8.93
2019-03-26T10:45:57.739Z,8.85
2019-03-26T10:46:57.723Z,8.60
2019-03-26T10:47:57.724Z,8.49
2019-03-26T10:48:57.707Z,8.52
2019-03-26T10:49:57.725Z,8.50
2019-03-26T10:50:57.723Z,8.43
2019-03-26T10:51:57.830Z,8.45
2019-03-26T10:52:57.651Z,8.40
2019-03-26T10:53:57.640Z,8.22
2019-03-26T10:54:57.636Z,8.21
2019-03-26T10:55:57.643Z,8.24
2019-03-26T10:56:57.610Z,8.24
2019-03-26T10:57:57.623Z,8.36
2019-03-26T10:58:57.584Z,8.34
2019-03-26T10:59:57.574Z,8.42
2019-03-26T11:00:57.582Z,8.43
2019-03-26T11:01:59.902Z,8.45
2019-03-26T11:02:57.550Z,8.47
2019-03-26T11:03:57.526Z,8.50
2019-03-26T11:04:57.520Z,8.65
2019-03-26T11:05:57.531Z,8.57
2019-03-26T11:06:57.512Z,8.63
2019-03-26T11:07:57.490Z,8.61
2019-03-26T11:08:57.486Z,8.61
2019-03-26T11:09:57.458Z,8.64
2019-03-26T11:10:57.473Z,8.68
2019-03-26T11:11:57.454Z,8.60
2019-03-26T11:12:57.431Z,8.52
2019-03-26T11:13:58.913Z,8.49
2019-03-26T11:14:57.406Z,8.61
2019-03-26T11:15:57.397Z,8.52
2019-03-26T11:16:57.407Z,8.60
2019-03-26T11:17:57.390Z,8.50
2019-03-26T11:18:57.366Z,8.67
2019-03-26T11:19:57.361Z,8.63
2019-03-26T11:21:02.633Z,8.63
2019-03-26T11:21:58.347Z,8.54
2019-03-26T11:22:57.328Z,8.55
2019-03-26T11:23:57.323Z,8.68
2019-03-26T11:24:57.299Z,8.75
2019-03-26T11:25:57.297Z,8.70
2019-03-26T11:26:57.288Z,8.76
2019-03-26T11:27:57.262Z,8.82
2019-03-26T11:28:57.262Z,8.76
2019-03-26T11:29:57.265Z,8.83
2019-03-26T11:30:57.229Z,8.76
2019-03-26T11:31:57.232Z,8.78
2019-03-26T11:32:57.202Z,8.71
2019-03-26T11:33:57.196Z,8.71
2019-03-26T11:34:57.193Z,8.64
2019-03-26T11:35:57.179Z,8.57
2019-03-26T11:36:57.319Z,8.63
2019-03-26T11:37:57.211Z,8.55
2019-03-26T11:38:57.137Z,8.70
2019-03-26T11:39:57.153Z,8.64
2019-03-26T11:40:57.300Z,8.63
2019-03-26T11:41:57.104Z,8.64
2019-03-26T11:42:57.112Z,8.64
2019-03-26T11:43:57.079Z,8.55
2019-03-26T11:44:59.362Z,8.61
2019-03-26T11:45:57.061Z,8.55
2019-03-26T11:46:57.079Z,8.58
2019-03-26T11:47:57.047Z,8.52
2019-03-26T11:48:57.028Z,8.46
2019-03-26T11:49:57.055Z,8.50
2019-03-26T11:50:57.003Z,8.42
2019-03-26T11:51:57.015Z,8.45
2019-03-26T11:52:57.005Z,8.55
2019-03-26T11:53:57.029Z,8.63
2019-03-26T11:54:57.005Z,8.46
2019-03-26T11:55:56.948Z,8.54
2019-03-26T11:56:56.943Z,8.45
2019-03-26T11:57:56.967Z,8.50
2019-03-26T11:58:56.913Z,8.47
2019-03-26T11:59:56.927Z,8.45
2019-03-26T12:00:56.888Z,8.46
2019-03-26T12:01:56.895Z,8.37
2019-03-26T12:02:56.870Z,8.21
2019-03-26T12:03:56.891Z,8.28
2019-03-26T12:04:56.861Z,8.14
2019-03-26T12:05:56.831Z,8.09
2019-03-26T12:06:56.855Z,8.06
2019-03-26T12:07:56.810Z,8.06
2019-03-26T12:08:56.814Z,7.95
2019-03-26T12:09:56.819Z,7.89
2019-03-26T12:10:56.781Z,7.76
2019-03-26T12:11:56.788Z,7.58
2019-03-26T12:12:56.758Z,7.51
2019-03-26T12:13:56.759Z,7.48
2019-03-26T12:14:56.737Z,7.44
2019-03-26T12:15:56.830Z,7.26
2019-03-26T12:16:56.706Z,7.19
2019-03-26T12:17:56.712Z,7.09
2019-03-26T12:18:56.683Z,6.97
2019-03-26T12:19:56.715Z,6.96
2019-03-26T12:20:56.661Z,6.96
2019-03-26T12:21:56.729Z,7.11
2019-03-26T12:22:56.660Z,7.05
2019-03-26T12:23:56.627Z,7.00
2019-03-26T12:24:56.624Z,6.96
2019-03-26T12:25:56.632Z,7.00
2019-03-26T12:26:56.593Z,6.96
2019-03-26T12:27:56.594Z,6.99
2019-03-26T12:28:56.581Z,7.01
2019-03-26T12:29:56.572Z,6.91
2019-03-26T12:30:56.554Z,6.89
2019-03-26T12:31:56.555Z,6.99
2019-03-26T12:32:56.773Z,6.89
2019-03-26T12:33:56.551Z,6.91
2019-03-26T12:34:56.505Z,6.96
2019-03-26T12:35:56.494Z,7.07
2019-03-26T12:36:56.488Z,7.16
2019-03-26T12:37:56.483Z,7.23
2019-03-26T12:38:56.622Z,7.23
2019-03-26T12:39:59.832Z,7.23
2019-03-26T12:40:56.439Z,7.36
2019-03-26T12:41:56.431Z,7.39
2019-03-26T12:42:56.482Z,7.48
2019-03-26T12:43:56.422Z,7.51
2019-03-26T12:44:56.406Z,7.70
2019-03-26T12:45:56.381Z,7.57
2019-03-26T12:46:58.311Z,7.66
2019-03-26T12:47:56.370Z,7.77
2019-03-26T12:48:56.435Z,7.84
2019-03-26T12:49:56.342Z,7.82
2019-03-26T12:50:56.328Z,7.77
2019-03-26T12:51:56.315Z,7.74
2019-03-26T12:52:56.314Z,7.74
2019-03-26T12:53:56.292Z,7.76
2019-03-26T12:54:56.283Z,7.81
2019-03-26T12:55:56.273Z,7.71
2019-03-26T12:56:56.262Z,7.62
2019-03-26T12:57:56.274Z,7.60
2019-03-26T12:58:56.238Z,7.55
2019-03-26T12:59:56.237Z,7.54
2019-03-26T13:00:56.215Z,7.51
2019-03-26T13:01:56.221Z,7.54
2019-03-26T13:02:56.327Z,7.45
2019-03-26T13:03:56.209Z,7.50
2019-03-26T13:04:56.174Z,7.47
2019-03-26T13:05:56.178Z,7.34
2019-03-26T13:06:56.146Z,7.32
2019-03-26T13:07:56.131Z,7.37
2019-03-26T13:08:56.170Z,7.29
2019-03-26T13:09:56.111Z,7.42
2019-03-26T13:10:56.123Z,7.52
2019-03-26T13:11:56.089Z,7.50
2019-03-26T13:12:56.101Z,7.47
2019-03-26T13:13:56.104Z,7.48
2019-03-26T13:14:59.229Z,7.47
2019-03-26T13:15:56.108Z,7.52
2019-03-26T13:16:56.051Z,7.48
2019-03-26T13:17:56.037Z,7.51